Time;durP1;ratioP1;P1;durP2;ratioP2;P2;SDS_P1;SDS_P2;PMS_P1;PMS_P2;Temp;Humidity;BMP_temperature;BMP_pressure;BME280_temperature;BME280_humidity;BME280_pressure;Samples;Min_cycle;Max_cycle;Signal;HPM_P1;HPM_P2
2023/04/13 00:00:21;;;;;;;10.38;9.32;;;;;;;;;;6333859;28;20298;-77
2023/04/13 00:03:29;;;;;;;10.45;9.10;;;;;;;;;;6333835;28;20293;-77
2023/04/13 00:06:37;;;;;;;11.23;9.00;;;;;;;;;;6334506;28;20289;-77
2023/04/13 00:09:44;;;;;;;12.60;9.63;;;;;;;;;;6332684;28;20313;-76
2023/04/13 00:12:49;;;;;;;11.82;9.65;;;;;;;;;;6308633;28;20290;-73
2023/04/13 00:15:54;;;;;;;10.00;9.00;;;;;;;;;;6309358;28;20317;-77
2023/04/13 00:19:00;;;;;;;11.80;9.82;;;;;;;;;;6308652;28;20286;-78
2023/04/13 00:22:08;;;;;;;11.57;9.65;;;;;;;;;;6313070;28;20294;-77
2023/04/13 00:25:14;;;;;;;12.07;9.10;;;;;;;;;;6313537;28;20294;-76
2023/04/13 00:28:20;;;;;;;10.27;9.25;;;;;;;;;;6313110;28;20286;-75
2023/04/13 00:31:25;;;;;;;10.23;9.30;;;;;;;;;;6296343;28;20298;-77
2023/04/13 00:34:30;;;;;;;11.38;8.30;;;;;;;;;;6295164;28;20295;-76
2023/04/13 00:37:38;;;;;;;9.88;8.88;;;;;;;;;;6313948;28;20290;-76
2023/04/13 00:40:43;;;;;;;13.10;9.35;;;;;;;;;;6313467;28;20298;-77
2023/04/13 00:43:51;;;;;;;10.38;9.27;;;;;;;;;;6313349;28;20291;-77
2023/04/13 00:46:56;;;;;;;11.10;9.18;;;;;;;;;;6296904;28;20287;-77
2023/04/13 00:50:02;;;;;;;11.55;9.73;;;;;;;;;;6338131;28;20325;-76
2023/04/13 00:53:12;;;;;;;9.52;8.55;;;;;;;;;;6338225;28;20289;-77
2023/04/13 00:56:21;;;;;;;11.13;9.23;;;;;;;;;;6338829;28;20334;-77
2023/04/13 00:59:27;;;;;;;10.23;9.20;;;;;;;;;;6337600;28;20601;-76
2023/04/13 01:02:33;;;;;;;11.48;8.57;;;;;;;;;;6332421;28;20559;-75
2023/04/13 01:05:49;;;;;;;9.30;8.38;;;;;;;;;;6311362;28;20293;-76
2023/04/13 01:09:01;;;;;;;10.35;8.50;;;;;;;;;;6294668;28;20286;-77
2023/04/13 01:12:13;;;;;;;11.15;8.88;;;;;;;;;;6295466;28;20314;-76
2023/04/13 01:15:19;;;;;;;10.02;8.55;;;;;;;;;;6294621;28;20302;-76
2023/04/13 01:18:26;;;;;;;8.63;7.80;;;;;;;;;;6294402;28;20290;-76
2023/04/13 01:21:33;;;;;;;9.15;8.32;;;;;;;;;;6295244;28;20298;-77
2023/04/13 01:24:44;;;;;;;9.43;8.18;;;;;;;;;;6294922;28;20607;-76
2023/04/13 01:27:53;;;;;;;8.60;7.85;;;;;;;;;;6295061;28;20290;-76
2023/04/13 01:31:00;;;;;;;9.00;8.10;;;;;;;;;;6294029;28;20287;-76
2023/04/13 01:34:05;;;;;;;9.68;8.32;;;;;;;;;;6293467;28;20286;-76
2023/04/13 01:37:11;;;;;;;7.85;7.28;;;;;;;;;;6295002;28;20303;-76
2023/04/13 01:40:16;;;;;;;8.93;7.90;;;;;;;;;;6293447;28;20383;-77
2023/04/13 01:43:28;;;;;;;9.38;7.63;;;;;;;;;;6293748;28;20298;-76
2023/04/13 01:46:46;;;;;;;8.18;7.40;;;;;;;;;;6286045;28;20291;-76
2023/04/13 01:50:24;;;;;;;7.30;6.70;;;;;;;;;;6282094;28;20294;-76
2023/04/13 01:53:57;;;;;;;7.10;6.70;;;;;;;;;;6282789;28;20479;-77
2023/04/13 01:57:03;;;;;;;10.35;7.05;;;;;;;;;;6269581;28;20287;-76
2023/04/13 02:00:15;;;;;;;7.63;6.78;;;;;;;;;;6268984;28;20299;-76
2023/04/13 02:03:22;;;;;;;7.55;6.95;;;;;;;;;;6272602;28;20290;-76
2023/04/13 02:06:28;;;;;;;7.30;6.78;;;;;;;;;;6286856;28;20315;-76
2023/04/13 02:09:34;;;;;;;7.20;6.43;;;;;;;;;;6285380;28;20300;-77
2023/04/13 02:12:39;;;;;;;6.93;6.32;;;;;;;;;;6293906;28;20547;-76
2023/04/13 02:15:46;;;;;;;6.63;6.22;;;;;;;;;;6311152;28;20298;-76
2023/04/13 02:18:51;;;;;;;6.50;5.88;;;;;;;;;;6310328;28;20282;-77
2023/04/13 02:21:57;;;;;;;6.20;5.90;;;;;;;;;;6293526;28;20294;-77
2023/04/13 02:25:02;;;;;;;6.18;5.55;;;;;;;;;;6293060;28;20295;-76
2023/04/13 02:28:08;;;;;;;6.00;5.60;;;;;;;;;;6292613;28;20306;-76
2023/04/13 02:31:15;;;;;;;5.75;5.40;;;;;;;;;;6293398;28;20443;-76
2023/04/13 02:34:22;;;;;;;5.43;4.90;;;;;;;;;;6292654;28;20602;-77
2023/04/13 02:37:28;;;;;;;5.22;4.78;;;;;;;;;;6292769;28;20290;-76
2023/04/13 02:40:35;;;;;;;4.95;4.55;;;;;;;;;;6292653;28;20582;-76
2023/04/13 02:43:41;;;;;;;5.60;5.20;;;;;;;;;;6292401;28;20298;-76
2023/04/13 02:46:47;;;;;;;4.97;4.78;;;;;;;;;;6293493;28;20282;-77
2023/04/13 02:49:54;;;;;;;4.90;4.70;;;;;;;;;;6308901;28;20294;-77
2023/04/13 02:53:04;;;;;;;5.68;5.15;;;;;;;;;;6309024;28;20314;-76
2023/04/13 02:56:11;;;;;;;5.05;4.65;;;;;;;;;;6309611;28;20319;-77
2023/04/13 02:59:16;;;;;;;5.78;5.22;;;;;;;;;;6310205;28;20462;-77
2023/04/13 03:02:25;;;;;;;5.78;4.78;;;;;;;;;;6296641;28;20314;-77
2023/04/13 03:05:31;;;;;;;5.05;4.55;;;;;;;;;;6309737;28;20301;-76
2023/04/13 03:08:36;;;;;;;4.90;4.60;;;;;;;;;;6292090;28;20345;-76
2023/04/13 03:11:45;;;;;;;5.45;4.68;;;;;;;;;;6325306;28;20269;-76
2023/04/13 03:14:55;;;;;;;5.07;4.70;;;;;;;;;;6316897;28;20342;-76
2023/04/13 03:18:03;;;;;;;5.30;4.80;;;;;;;;;;6316076;28;20305;-76
2023/04/13 03:21:09;;;;;;;4.78;4.57;;;;;;;;;;6293255;28;20492;-76
2023/04/13 03:24:26;;;;;;;5.00;4.60;;;;;;;;;;6292003;28;20238;-77
2023/04/13 03:27:33;;;;;;;5.18;4.70;;;;;;;;;;6292024;28;20290;-76
2023/04/13 03:30:38;;;;;;;4.93;4.72;;;;;;;;;;6309510;28;20286;-77
2023/04/13 03:33:46;;;;;;;5.57;4.80;;;;;;;;;;6309216;28;20314;-77
2023/04/13 03:36:51;;;;;;;5.00;4.53;;;;;;;;;;6308888;28;20290;-76
2023/04/13 03:39:59;;;;;;;4.95;4.65;;;;;;;;;;6341486;28;20288;-76
2023/04/13 03:43:09;;;;;;;4.75;4.50;;;;;;;;;;6358355;28;20292;-76
2023/04/13 03:46:19;;;;;;;4.68;4.38;;;;;;;;;;6335473;28;20601;-77
2023/04/13 03:49:27;;;;;;;7.18;5.20;;;;;;;;;;6316184;28;20629;-76
2023/04/13 03:52:32;;;;;;;5.63;5.28;;;;;;;;;;6334762;28;20574;-76
2023/04/13 03:55:37;;;;;;;7.25;4.90;;;;;;;;;;6315870;28;20293;-75
2023/04/13 03:58:44;;;;;;;5.78;5.38;;;;;;;;;;6316441;28;20290;-76
2023/04/13 04:01:52;;;;;;;5.30;5.00;;;;;;;;;;6316450;28;20285;-76
2023/04/13 04:04:59;;;;;;;5.50;5.07;;;;;;;;;;6291437;28;20290;-76
2023/04/13 04:08:05;;;;;;;5.43;5.15;;;;;;;;;;6309000;28;20290;-76
2023/04/13 04:11:10;;;;;;;5.75;5.25;;;;;;;;;;6277812;28;20603;-76
2023/04/13 04:14:15;;;;;;;6.32;5.80;;;;;;;;;;6267107;28;20299;-77
2023/04/13 04:17:29;;;;;;;5.72;5.43;;;;;;;;;;6266759;28;20320;-76
2023/04/13 04:20:36;;;;;;;5.63;5.10;;;;;;;;;;6266562;28;20302;-76
2023/04/13 04:23:43;;;;;;;6.03;5.43;;;;;;;;;;6264183;28;20295;-76
2023/04/13 04:26:49;;;;;;;5.72;5.30;;;;;;;;;;6266800;28;20263;-77
2023/04/13 04:29:58;;;;;;;9.82;5.40;;;;;;;;;;6266173;28;20287;-76
2023/04/13 04:33:15;;;;;;;6.45;5.30;;;;;;;;;;6266906;28;20298;-75
2023/04/13 04:36:22;;;;;;;7.97;5.47;;;;;;;;;;6284115;28;20287;-77
2023/04/13 04:39:43;;;;;;;6.05;5.32;;;;;;;;;;6266248;28;20295;-77
2023/04/13 04:42:52;;;;;;;9.88;5.63;;;;;;;;;;6266039;28;20303;-76
2023/04/13 04:46:20;;;;;;;6.03;5.53;;;;;;;;;;6271622;28;20310;-77
2023/04/13 04:49:30;;;;;;;5.50;5.10;;;;;;;;;;6291108;28;20292;-77
2023/04/13 04:52:37;;;;;;;5.80;5.25;;;;;;;;;;6291482;28;20289;-76
2023/04/13 04:55:45;;;;;;;5.10;4.80;;;;;;;;;;6291259;28;20291;-77
2023/04/13 04:59:01;;;;;;;12.15;5.07;;;;;;;;;;6291378;28;20295;-77
2023/04/13 05:02:27;;;;;;;6.45;5.35;;;;;;;;;;6291249;28;20307;-76
2023/04/13 05:05:32;;;;;;;7.28;4.72;;;;;;;;;;6312592;28;20309;-77
2023/04/13 05:08:45;;;;;;;5.80;5.40;;;;;;;;;;6319096;28;20293;-75
2023/04/13 05:11:51;;;;;;;5.78;4.95;;;;;;;;;;6302298;28;20259;-77
2023/04/13 05:14:57;;;;;;;5.22;4.80;;;;;;;;;;6297139;28;20298;-77
2023/04/13 05:18:04;;;;;;;5.10;4.70;;;;;;;;;;6297810;28;20290;-77
2023/04/13 05:21:11;;;;;;;5.50;5.10;;;;;;;;;;6297708;28;20385;-77
2023/04/13 05:24:19;;;;;;;8.38;5.03;;;;;;;;;;6297685;28;20484;-76
2023/04/13 05:27:26;;;;;;;7.90;5.18;;;;;;;;;;6298277;28;20304;-77
2023/04/13 05:30:34;;;;;;;6.63;5.07;;;;;;;;;;6297375;28;20298;-77
2023/04/13 05:33:40;;;;;;;7.32;5.03;;;;;;;;;;6297131;28;20302;-76
2023/04/13 05:36:45;;;;;;;6.10;5.15;;;;;;;;;;6298157;28;20291;-77
2023/04/13 05:39:53;;;;;;;5.50;4.97;;;;;;;;;;6296561;28;20295;-76
2023/04/13 05:43:05;;;;;;;6.00;4.75;;;;;;;;;;6294596;28;20298;-77
2023/04/13 05:46:16;;;;;;;5.93;5.13;;;;;;;;;;6299646;28;20290;-76
2023/04/13 05:49:22;;;;;;;5.38;4.95;;;;;;;;;;6319589;28;20297;-79
2023/04/13 05:52:28;;;;;;;7.15;5.28;;;;;;;;;;6319262;28;20293;-75
2023/04/13 05:55:35;;;;;;;11.02;5.45;;;;;;;;;;6318961;28;20303;-76
2023/04/13 05:58:42;;;;;;;6.55;4.45;;;;;;;;;;6318483;28;20293;-76
2023/04/13 06:02:07;;;;;;;10.32;5.90;;;;;;;;;;6318975;28;20285;-76
2023/04/13 06:05:13;;;;;;;8.10;5.57;;;;;;;;;;6318821;28;20298;-77
2023/04/13 06:08:20;;;;;;;6.18;5.50;;;;;;;;;;6318534;28;20609;-75
2023/04/13 06:11:28;;;;;;;7.35;4.65;;;;;;;;;;6320215;28;20382;-76
2023/04/13 06:14:36;;;;;;;9.10;5.05;;;;;;;;;;6310842;28;20318;-77
2023/04/13 06:17:42;;;;;;;12.13;5.55;;;;;;;;;;6310541;28;20347;-76
2023/04/13 06:20:49;;;;;;;12.27;5.60;;;;;;;;;;6294924;28;20275;-77
2023/04/13 06:23:54;;;;;;;6.90;4.82;;;;;;;;;;6311145;28;20298;-75
2023/04/13 06:27:10;;;;;;;7.35;5.35;;;;;;;;;;6293535;28;20291;-76
2023/04/13 06:30:17;;;;;;;11.45;5.47;;;;;;;;;;6292884;28;20606;-77
2023/04/13 06:33:26;;;;;;;8.30;5.40;;;;;;;;;;6292746;28;20302;-76
2023/04/13 06:36:32;;;;;;;11.00;5.55;;;;;;;;;;6292896;28;20290;-76
2023/04/13 06:39:39;;;;;;;10.23;5.50;;;;;;;;;;6292484;28;20366;-77
2023/04/13 06:42:47;;;;;;;5.82;5.20;;;;;;;;;;6292965;28;20453;-76
2023/04/13 06:46:13;;;;;;;10.77;5.65;;;;;;;;;;6313710;28;20313;-76
2023/04/13 06:49:21;;;;;;;13.52;5.05;;;;;;;;;;6317410;28;20294;-77
2023/04/13 06:52:28;;;;;;;10.18;5.50;;;;;;;;;;6317420;28;20301;-76
2023/04/13 06:55:33;;;;;;;7.45;5.00;;;;;;;;;;6317559;28;20302;-76
2023/04/13 06:58:39;;;;;;;10.18;5.30;;;;;;;;;;6317182;28;20302;-76
2023/04/13 07:01:44;;;;;;;12.65;5.70;;;;;;;;;;6317695;28;20297;-77
2023/04/13 07:04:50;;;;;;;8.75;5.47;;;;;;;;;;6334429;28;20471;-75
2023/04/13 07:07:57;;;;;;;7.60;5.03;;;;;;;;;;6317112;28;20301;-77
2023/04/13 07:11:03;;;;;;;9.05;5.00;;;;;;;;;;6308880;28;20294;-78
2023/04/13 07:14:14;;;;;;;12.80;5.30;;;;;;;;;;6291702;28;20295;-77
2023/04/13 07:17:20;;;;;;;9.45;5.00;;;;;;;;;;6292109;28;20369;-76
2023/04/13 07:20:27;;;;;;;14.90;5.25;;;;;;;;;;6296485;28;20295;-77
2023/04/13 07:23:33;;;;;;;13.50;4.70;;;;;;;;;;6299540;28;20294;-76
2023/04/13 07:26:41;;;;;;;11.07;4.97;;;;;;;;;;6300473;28;20294;-76
2023/04/13 07:29:47;;;;;;;11.25;5.68;;;;;;;;;;6301426;28;20290;-77
2023/04/13 07:32:57;;;;;;;12.15;5.20;;;;;;;;;;6294960;28;20262;-76
2023/04/13 07:36:02;;;;;;;13.35;5.07;;;;;;;;;;6301729;28;20408;-76
2023/04/13 07:39:11;;;;;;;6.78;4.72;;;;;;;;;;6300686;28;20299;-76
2023/04/13 07:42:21;;;;;;;10.82;5.18;;;;;;;;;;6299289;28;20295;-76
2023/04/13 07:45:31;;;;;;;7.40;5.00;;;;;;;;;;6297797;28;20298;-75
2023/04/13 07:48:38;;;;;;;12.73;5.30;;;;;;;;;;6325737;28;20294;-76
2023/04/13 07:51:53;;;;;;;10.25;5.40;;;;;;;;;;6292080;28;20302;-77
2023/04/13 07:55:02;;;;;;;14.68;5.70;;;;;;;;;;6307949;28;20298;-76
2023/04/13 07:58:13;;;;;;;11.55;4.97;;;;;;;;;;6291403;28;20302;-76
2023/04/13 08:01:20;;;;;;;16.17;5.70;;;;;;;;;;6307676;28;20294;-76
2023/04/13 08:04:26;;;;;;;8.43;5.30;;;;;;;;;;6282345;28;20310;-76
2023/04/13 08:07:32;;;;;;;7.80;5.03;;;;;;;;;;6300046;28;20595;-76
2023/04/13 08:10:38;;;;;;;13.00;5.07;;;;;;;;;;6304704;28;20474;-76
2023/04/13 08:13:44;;;;;;;11.50;5.30;;;;;;;;;;6290975;28;20570;-75
2023/04/13 08:16:51;;;;;;;15.68;5.68;;;;;;;;;;6309307;28;20297;-75
2023/04/13 08:19:56;;;;;;;10.40;5.45;;;;;;;;;;6308357;28;20290;-77
2023/04/13 08:23:02;;;;;;;14.30;5.00;;;;;;;;;;6291139;28;20294;-76
2023/04/13 08:26:08;;;;;;;12.05;5.60;;;;;;;;;;6293303;28;20308;-77
2023/04/13 08:29:14;;;;;;;13.73;6.63;;;;;;;;;;6291014;28;20458;-77
2023/04/13 08:32:21;;;;;;;9.73;5.70;;;;;;;;;;6291377;28;20290;-76
2023/04/13 08:35:27;;;;;;;10.60;6.20;;;;;;;;;;6290381;28;20306;-77
2023/04/13 08:38:36;;;;;;;11.63;6.50;;;;;;;;;;6290646;28;20322;-77
2023/04/13 08:41:46;;;;;;;11.27;5.97;;;;;;;;;;6291795;28;20271;-76
2023/04/13 08:44:56;;;;;;;8.98;6.43;;;;;;;;;;6295424;28;20329;-74
2023/04/13 08:48:03;;;;;;;14.48;6.68;;;;;;;;;;6286867;28;20295;-75
2023/04/13 08:51:14;;;;;;;13.65;6.55;;;;;;;;;;6288155;28;20286;-77
2023/04/13 08:54:20;;;;;;;14.40;6.63;;;;;;;;;;6287446;28;20295;-77
2023/04/13 08:57:26;;;;;;;11.80;6.65;;;;;;;;;;6288284;28;20306;-78
2023/04/13 09:00:32;;;;;;;11.73;6.43;;;;;;;;;;6287215;28;20291;-76
2023/04/13 09:03:44;;;;;;;17.75;6.30;;;;;;;;;;6302552;28;20299;-76
2023/04/13 09:06:50;;;;;;;8.25;6.32;;;;;;;;;;6313326;28;20302;-75
2023/04/13 09:09:58;;;;;;;10.75;6.55;;;;;;;;;;6298980;28;20306;-77
2023/04/13 09:13:03;;;;;;;11.63;6.25;;;;;;;;;;6319382;28;20298;-77
2023/04/13 09:16:10;;;;;;;9.65;6.40;;;;;;;;;;6320309;28;20293;-76
2023/04/13 09:19:33;;;;;;;9.55;6.50;;;;;;;;;;6337931;28;20293;-75
2023/04/13 09:22:42;;;;;;;11.95;6.70;;;;;;;;;;6320133;28;20290;-76
2023/04/13 09:25:47;;;;;;;9.75;6.82;;;;;;;;;;6319512;28;20582;-76
2023/04/13 09:28:55;;;;;;;13.32;7.15;;;;;;;;;;6337275;28;20571;-76
2023/04/13 09:32:01;;;;;;;14.25;7.15;;;;;;;;;;6338148;28;20302;-77
2023/04/13 09:35:10;;;;;;;13.10;6.82;;;;;;;;;;6337509;28;20294;-76
2023/04/13 09:38:16;;;;;;;15.75;7.05;;;;;;;;;;6337403;28;20568;-76
2023/04/13 09:41:35;;;;;;;12.75;7.10;;;;;;;;;;6338089;28;20289;-75
2023/04/13 09:44:40;;;;;;;10.85;6.90;;;;;;;;;;6337996;28;20537;-75
2023/04/13 09:47:46;;;;;;;17.45;6.57;;;;;;;;;;6322857;28;20282;-76
2023/04/13 09:51:04;;;;;;;11.65;7.55;;;;;;;;;;6315012;28;20427;-76
2023/04/13 09:54:11;;;;;;;11.02;7.55;;;;;;;;;;6314662;28;20294;-76
2023/04/13 09:57:24;;;;;;;11.05;7.28;;;;;;;;;;6315341;28;20361;-76
2023/04/13 10:00:31;;;;;;;8.20;7.10;;;;;;;;;;6314412;28;20294;-75
2023/04/13 10:03:36;;;;;;;10.73;6.68;;;;;;;;;;6300523;28;20308;-77
2023/04/13 10:06:43;;;;;;;16.35;7.38;;;;;;;;;;6289434;28;20307;-75
2023/04/13 10:09:50;;;;;;;13.85;7.15;;;;;;;;;;6294248;28;20407;-79
2023/04/13 10:12:58;;;;;;;13.13;7.47;;;;;;;;;;6339419;28;20293;-79
2023/04/13 10:16:38;;;;;;;20.13;7.63;;;;;;;;;;6339628;28;20286;-79
2023/04/13 10:19:45;;;;;;;12.38;6.88;;;;;;;;;;6339831;28;20302;-74
2023/04/13 10:22:52;;;;;;;13.77;7.03;;;;;;;;;;6337755;28;20286;-76
2023/04/13 10:25:59;;;;;;;11.30;6.60;;;;;;;;;;6338333;28;20294;-76
2023/04/13 10:29:05;;;;;;;13.43;7.32;;;;;;;;;;6320902;28;20293;-76
2023/04/13 10:32:21;;;;;;;14.85;6.80;;;;;;;;;;6338663;28;20298;-77
2023/04/13 10:35:27;;;;;;;16.58;7.07;;;;;;;;;;6338948;28;20593;-76
2023/04/13 10:38:43;;;;;;;8.98;7.10;;;;;;;;;;6337405;28;20505;-77
2023/04/13 10:42:00;;;;;;;10.15;6.93;;;;;;;;;;6336980;28;20269;-76
2023/04/13 10:45:06;;;;;;;10.60;7.30;;;;;;;;;;6338350;28;20294;-76
2023/04/13 10:48:21;;;;;;;11.50;7.40;;;;;;;;;;6316116;28;20334;-77
2023/04/13 10:51:27;;;;;;;11.43;6.93;;;;;;;;;;6312865;28;20290;-76
2023/04/13 10:54:35;;;;;;;12.60;7.60;;;;;;;;;;6312978;28;20282;-78
2023/04/13 10:57:41;;;;;;;14.98;7.80;;;;;;;;;;6312889;28;20612;-77
2023/04/13 11:00:46;;;;;;;13.48;7.20;;;;;;;;;;6312278;28;20291;-76
2023/04/13 11:03:52;;;;;;;9.98;7.20;;;;;;;;;;6311739;28;20366;-76
2023/04/13 11:07:11;;;;;;;8.48;7.10;;;;;;;;;;6311886;28;20563;-77
2023/04/13 11:10:23;;;;;;;14.23;7.50;;;;;;;;;;6324625;28;20538;-76
2023/04/13 11:13:29;;;;;;;12.30;7.68;;;;;;;;;;6362487;28;20298;-77
2023/04/13 11:16:44;;;;;;;18.33;7.32;;;;;;;;;;6362502;28;20289;-76
2023/04/13 11:19:50;;;;;;;13.43;7.32;;;;;;;;;;6362113;28;20301;-75
2023/04/13 11:22:56;;;;;;;11.52;6.68;;;;;;;;;;6361536;28;20288;-76
2023/04/13 11:26:03;;;;;;;11.75;6.93;;;;;;;;;;6362635;28;20284;-76
2023/04/13 11:29:18;;;;;;;14.23;6.75;;;;;;;;;;6362213;28;20597;-77
2023/04/13 11:32:24;;;;;;;13.93;7.05;;;;;;;;;;6362674;28;20300;-77
2023/04/13 11:35:30;;;;;;;10.55;7.10;;;;;;;;;;6362454;28;20288;-77
2023/04/13 11:38:36;;;;;;;10.25;6.38;;;;;;;;;;6361635;28;20293;-77
2023/04/13 11:41:43;;;;;;;15.07;7.07;;;;;;;;;;6361881;28;20269;-76
2023/04/13 11:44:48;;;;;;;18.05;8.77;;;;;;;;;;6362301;28;20289;-78
2023/04/13 11:47:53;;;;;;;16.17;8.43;;;;;;;;;;6342736;28;20282;-76
2023/04/13 11:50:59;;;;;;;11.85;8.05;;;;;;;;;;6337430;28;20286;-75
2023/04/13 11:54:05;;;;;;;17.50;7.93;;;;;;;;;;6336998;28;20477;-77
2023/04/13 11:57:12;;;;;;;19.77;7.68;;;;;;;;;;6337599;28;20290;-78
2023/04/13 12:00:22;;;;;;;11.15;7.70;;;;;;;;;;6319407;28;20293;-76
2023/04/13 12:03:28;;;;;;;13.82;7.55;;;;;;;;;;6336382;28;20298;-79
2023/04/13 12:06:54;;;;;;;12.18;7.65;;;;;;;;;;6318729;28;20298;-77
2023/04/13 12:10:00;;;;;;;16.80;8.48;;;;;;;;;;6339575;28;20300;-77
2023/04/13 12:13:12;;;;;;;14.57;8.23;;;;;;;;;;6361302;28;20293;-77
2023/04/13 12:16:25;;;;;;;17.70;8.20;;;;;;;;;;6362247;28;20290;-79
2023/04/13 12:19:55;;;;;;;16.23;8.80;;;;;;;;;;6366359;28;20293;-77
2023/04/13 12:23:01;;;;;;;18.45;9.05;;;;;;;;;;6365814;28;20292;-77
2023/04/13 12:26:31;;;;;;;19.60;8.88;;;;;;;;;;6365430;28;20285;-77
2023/04/13 12:30:03;;;;;;;12.00;8.02;;;;;;;;;;6364545;28;20633;-76
2023/04/13 12:33:12;;;;;;;14.48;7.88;;;;;;;;;;6364714;28;20303;-77
2023/04/13 12:36:17;;;;;;;14.65;8.02;;;;;;;;;;6364562;28;20565;-77
2023/04/13 12:39:22;;;;;;;21.15;8.32;;;;;;;;;;6364388;28;20296;-78
2023/04/13 12:42:27;;;;;;;16.63;7.70;;;;;;;;;;6365026;28;20281;-76
2023/04/13 12:45:34;;;;;;;14.80;7.50;;;;;;;;;;6363572;28;20305;-75
2023/04/13 12:48:39;;;;;;;16.90;8.38;;;;;;;;;;6338880;28;20293;-76
2023/04/13 12:51:44;;;;;;;16.05;7.43;;;;;;;;;;6339468;28;20285;-76
2023/04/13 12:54:49;;;;;;;11.35;7.20;;;;;;;;;;6338245;28;20285;-76
2023/04/13 12:57:54;;;;;;;18.75;8.05;;;;;;;;;;6338054;28;20297;-75
2023/04/13 13:01:01;;;;;;;18.15;7.38;;;;;;;;;;6320412;28;20285;-77
2023/04/13 13:04:06;;;;;;;13.63;7.35;;;;;;;;;;6337645;28;20294;-76
2023/04/13 13:07:12;;;;;;;15.00;7.30;;;;;;;;;;6338642;28;20321;-76
2023/04/13 13:10:17;;;;;;;14.73;6.27;;;;;;;;;;6344811;28;20297;-77
2023/04/13 13:13:34;;;;;;;12.27;6.95;;;;;;;;;;6362886;28;20309;-76
2023/04/13 13:16:40;;;;;;;11.03;6.43;;;;;;;;;;6363685;28;20293;-76
2023/04/13 13:19:46;;;;;;;10.00;6.10;;;;;;;;;;6363296;28;20372;-77
2023/04/13 13:22:51;;;;;;;13.07;6.10;;;;;;;;;;6362452;28;20296;-75
2023/04/13 13:25:56;;;;;;;10.37;6.23;;;;;;;;;;6363576;28;20557;-77
2023/04/13 13:29:10;;;;;;;12.00;5.60;;;;;;;;;;6361601;28;20297;-76
2023/04/13 13:32:17;;;;;;;15.20;6.13;;;;;;;;;;6362970;28;20300;-76
2023/04/13 13:35:24;;;;;;;11.03;6.10;;;;;;;;;;6363074;28;20356;-76
2023/04/13 13:38:29;;;;;;;15.80;5.87;;;;;;;;;;6363088;28;20315;-77
2023/04/13 13:41:34;;;;;;;17.57;6.03;;;;;;;;;;6363813;28;20304;-77
2023/04/13 13:44:40;;;;;;;12.23;5.60;;;;;;;;;;6361570;28;20288;-76
2023/04/13 13:47:50;;;;;;;7.47;5.10;;;;;;;;;;6345766;28;20258;-78
2023/04/13 13:50:57;;;;;;;13.53;5.93;;;;;;;;;;6318866;28;20306;-77
2023/04/13 13:54:03;;;;;;;14.30;5.80;;;;;;;;;;6318816;28;20566;-77
2023/04/13 13:57:09;;;;;;;15.63;5.30;;;;;;;;;;6337185;28;20285;-77
2023/04/13 14:00:16;;;;;;;12.33;5.50;;;;;;;;;;6337427;28;20305;-77
2023/04/13 14:03:23;;;;;;;12.37;5.43;;;;;;;;;;6336410;28;20292;-77
2023/04/13 14:06:28;;;;;;;10.17;4.40;;;;;;;;;;6337237;28;20284;-77
2023/04/13 14:09:34;;;;;;;8.80;5.20;;;;;;;;;;6336691;28;20294;-76
2023/04/13 14:12:40;;;;;;;8.23;5.00;;;;;;;;;;6362344;28;20338;-77
2023/04/13 14:15:45;;;;;;;10.23;4.90;;;;;;;;;;6361538;28;20292;-77
2023/04/13 14:18:52;;;;;;;13.20;4.93;;;;;;;;;;6361195;28;20312;-76
2023/04/13 14:21:57;;;;;;;11.83;5.13;;;;;;;;;;6361781;28;20291;-76
2023/04/13 14:25:02;;;;;;;12.77;5.20;;;;;;;;;;6361213;28;20303;-77
2023/04/13 14:28:08;;;;;;;9.70;4.73;;;;;;;;;;6360634;28;20312;-76
2023/04/13 14:31:14;;;;;;;10.50;4.13;;;;;;;;;;6361778;28;20458;-76
2023/04/13 14:34:21;;;;;;;7.27;4.67;;;;;;;;;;6362697;28;20291;-77
2023/04/13 14:37:27;;;;;;;14.87;3.97;;;;;;;;;;6361839;28;20291;-78
2023/04/13 14:40:32;;;;;;;11.43;4.53;;;;;;;;;;6360935;28;20307;-77
2023/04/13 14:43:37;;;;;;;10.03;4.17;;;;;;;;;;6360630;28;20299;-76
2023/04/13 14:46:43;;;;;;;9.40;3.70;;;;;;;;;;6352936;28;20287;-78
2023/04/13 14:49:51;;;;;;;10.10;4.40;;;;;;;;;;6335308;28;20304;-76
2023/04/13 14:52:56;;;;;;;10.73;4.30;;;;;;;;;;6335733;28;20296;-78
2023/04/13 14:56:01;;;;;;;10.87;4.10;;;;;;;;;;6335594;28;20459;-77
2023/04/13 14:59:06;;;;;;;8.63;4.50;;;;;;;;;;6335494;28;20304;-77
2023/04/13 15:02:12;;;;;;;12.63;4.23;;;;;;;;;;6335357;28;20470;-77
2023/04/13 15:05:19;;;;;;;13.57;4.17;;;;;;;;;;6335303;28;20300;-75
2023/04/13 15:08:24;;;;;;;7.93;3.90;;;;;;;;;;6334857;28;20297;-77
2023/04/13 15:11:29;;;;;;;7.60;3.90;;;;;;;;;;6351811;28;20329;-76
2023/04/13 15:14:34;;;;;;;8.40;4.03;;;;;;;;;;6360242;28;20299;-75
2023/04/13 15:17:40;;;;;;;7.73;3.87;;;;;;;;;;6360076;28;20268;-75
2023/04/13 15:20:46;;;;;;;7.97;4.23;;;;;;;;;;6359987;28;20300;-77
2023/04/13 15:23:51;;;;;;;8.50;4.67;;;;;;;;;;6360286;28;20296;-77
2023/04/13 15:26:57;;;;;;;7.90;4.20;;;;;;;;;;6360518;28;20268;-76
2023/04/13 15:30:02;;;;;;;9.97;4.43;;;;;;;;;;6360169;28;20291;-77
2023/04/13 15:33:08;;;;;;;12.17;4.20;;;;;;;;;;6360216;28;20295;-77
2023/04/13 15:36:17;;;;;;;9.60;4.20;;;;;;;;;;6360258;28;20341;-77
2023/04/13 15:39:23;;;;;;;10.90;4.70;;;;;;;;;;6359822;28;20410;-76
2023/04/13 15:42:28;;;;;;;9.90;3.90;;;;;;;;;;6360410;28;20288;-76
2023/04/13 15:45:33;;;;;;;13.20;4.23;;;;;;;;;;6359913;28;20295;-77
2023/04/13 15:48:38;;;;;;;8.50;3.93;;;;;;;;;;6334620;28;20292;-77
2023/04/13 15:51:45;;;;;;;6.53;3.70;;;;;;;;;;6334326;28;20297;-77
2023/04/13 15:54:50;;;;;;;8.90;3.93;;;;;;;;;;6334043;28;20288;-77
2023/04/13 15:57:55;;;;;;;18.03;4.93;;;;;;;;;;6334285;28;20304;-75
2023/04/13 16:01:03;;;;;;;11.00;4.60;;;;;;;;;;6334949;28;20293;-76
2023/04/13 16:04:09;;;;;;;11.53;4.00;;;;;;;;;;6334176;28;20301;-77
2023/04/13 16:07:15;;;;;;;12.93;4.07;;;;;;;;;;6335049;28;20460;-76
2023/04/13 16:10:21;;;;;;;9.43;4.27;;;;;;;;;;6341196;28;20295;-75
2023/04/13 16:13:29;;;;;;;8.03;4.47;;;;;;;;;;6359214;28;20479;-76
2023/04/13 16:16:53;;;;;;;8.80;4.50;;;;;;;;;;6360009;28;20292;-77
2023/04/13 16:20:07;;;;;;;13.43;4.80;;;;;;;;;;6359356;28;20308;-78
2023/04/13 16:23:14;;;;;;;10.10;3.93;;;;;;;;;;6359633;28;20454;-77
2023/04/13 16:26:20;;;;;;;11.83;5.07;;;;;;;;;;6360286;28;20351;-77
2023/04/13 16:29:27;;;;;;;11.23;4.60;;;;;;;;;;6359417;28;20300;-79
2023/04/13 16:32:32;;;;;;;11.13;4.37;;;;;;;;;;6360037;28;20311;-79
2023/04/13 16:35:37;;;;;;;11.57;3.87;;;;;;;;;;6359589;28;20310;-79
2023/04/13 16:38:43;;;;;;;12.40;4.43;;;;;;;;;;6363528;28;20288;-77
2023/04/13 16:41:48;;;;;;;12.10;4.10;;;;;;;;;;6341884;28;20272;-76
2023/04/13 16:44:54;;;;;;;11.60;4.73;;;;;;;;;;6358542;28;20296;-76
2023/04/13 16:47:59;;;;;;;8.03;4.27;;;;;;;;;;6339613;28;20390;-77
2023/04/13 16:51:04;;;;;;;13.63;4.07;;;;;;;;;;6334089;28;20311;-78
2023/04/13 16:54:12;;;;;;;12.93;4.90;;;;;;;;;;6333681;28;20291;-78
2023/04/13 16:57:17;;;;;;;7.77;4.43;;;;;;;;;;6334838;28;20297;-78
2023/04/13 17:00:23;;;;;;;14.83;5.60;;;;;;;;;;6333202;28;20302;-78
2023/04/13 17:03:28;;;;;;;11.97;4.70;;;;;;;;;;6335462;28;20589;-77
2023/04/13 17:06:36;;;;;;;5.07;4.00;;;;;;;;;;6338821;28;20291;-77
2023/04/13 17:09:43;;;;;;;11.17;4.77;;;;;;;;;;6339624;28;20295;-77
2023/04/13 17:12:48;;;;;;;14.63;4.23;;;;;;;;;;6363269;28;20298;-77
2023/04/13 17:15:53;;;;;;;10.60;4.70;;;;;;;;;;6362804;28;20297;-77
2023/04/13 17:18:58;;;;;;;11.23;4.33;;;;;;;;;;6363449;28;20280;-77
2023/04/13 17:22:04;;;;;;;13.20;4.63;;;;;;;;;;6363902;28;20320;-77
2023/04/13 17:25:12;;;;;;;11.37;4.63;;;;;;;;;;6363072;27;20301;-77
2023/04/13 17:28:17;;;;;;;11.00;4.20;;;;;;;;;;6363227;28;20380;-77
2023/04/13 17:31:23;;;;;;;8.17;4.97;;;;;;;;;;6363166;28;20490;-78
2023/04/13 17:34:28;;;;;;;12.17;4.97;;;;;;;;;;6344688;28;20296;-76
2023/04/13 17:37:33;;;;;;;9.87;5.20;;;;;;;;;;6344898;28;20288;-76
2023/04/13 17:40:39;;;;;;;11.20;5.37;;;;;;;;;;6362462;28;20300;-77
2023/04/13 17:43:45;;;;;;;9.33;5.17;;;;;;;;;;6362391;28;20303;-77
2023/04/13 17:46:51;;;;;;;5.90;4.73;;;;;;;;;;6353875;28;20297;-77
2023/04/13 17:49:57;;;;;;;7.70;4.37;;;;;;;;;;6336939;28;20293;-78
2023/04/13 17:53:03;;;;;;;9.87;4.77;;;;;;;;;;6337191;28;20296;-78
2023/04/13 17:56:15;;;;;;;12.47;4.90;;;;;;;;;;6337558;28;20580;-77
2023/04/13 17:59:20;;;;;;;10.57;4.70;;;;;;;;;;6337222;28;20301;-75
2023/04/13 18:02:25;;;;;;;12.73;5.90;;;;;;;;;;6337075;28;20312;-76
2023/04/13 18:05:31;;;;;;;4.77;4.30;;;;;;;;;;6337412;28;20283;-76
2023/04/13 18:08:36;;;;;;;8.90;5.13;;;;;;;;;;6336882;28;20471;-76
2023/04/13 18:11:43;;;;;;;7.07;4.97;;;;;;;;;;6354974;28;20287;-76
2023/04/13 18:14:48;;;;;;;9.17;4.67;;;;;;;;;;6343523;28;20303;-77
2023/04/13 18:17:53;;;;;;;9.00;4.20;;;;;;;;;;6362691;28;20268;-76
2023/04/13 18:20:59;;;;;;;12.47;5.30;;;;;;;;;;6362684;28;20446;-77
2023/04/13 18:24:05;;;;;;;13.40;4.87;;;;;;;;;;6361015;28;20291;-76
2023/04/13 18:27:11;;;;;;;12.50;4.13;;;;;;;;;;6362227;28;20296;-77
2023/04/13 18:30:17;;;;;;;10.00;4.30;;;;;;;;;;6361836;28;20300;-76
2023/04/13 18:33:22;;;;;;;17.03;5.30;;;;;;;;;;6361408;28;20290;-77
2023/04/13 18:36:27;;;;;;;10.80;4.53;;;;;;;;;;6362118;28;20564;-78